This is the latest recevied weather packets stored in our database for station/object YC0TBU-3. If no packets are shown the sender has not sent any weather packets the latest 10 day(s).
| Time | Temp. | Humidity | Pressure | Rain* | Wind** | Luminosity | Snow |
|---|---|---|---|---|---|---|---|
| 1787623506 | 31.11° C | 56% | 1018 hPa | - | - | - | - |
| 1787621806 | 29.44° C | 60% | 1018.4 hPa | - | - | - | - |
| 1787620106 | 28.33° C | 64% | 1016.1 hPa | - | - | - | - |
| 1787618406 | 28.33° C | 66% | 1017.3 hPa | - | - | - | - |
| 1787616714 | 28.33° C | 67% | 1017.2 hPa | - | - | - | - |
| 1787614974 | 28.33° C | 67% | 1017.1 hPa | - | - | - | - |
| 1787613304 | 30° C | 63% | 1016.8 hPa | - | - | - | - |
| 1787611574 | 30° C | 63% | 1016.8 hPa | - | - | - | - |
| 1787609874 | 29.44° C | 63% | 1016.1 hPa | - | - | - | - |
| 1787608185 | 29.44° C | 64% | 1015.9 hPa | - | - | - | - |
| 1787606449 | 29.44° C | 64% | 1016.4 hPa | - | - | - | - |
| 1787604746 | 28.33° C | 68% | 1015.7 hPa | - | - | - | - |
| 1787603043 | 29.44° C | 65% | 1016.3 hPa | - | - | - | - |
| 1787601346 | 30.56° C | 64% | 1015.6 hPa | - | - | - | - |
| 1787599654 | 31.67° C | 63% | 1015.8 hPa | - | - | - | - |
| 1787597927 | 31.67° C | 63% | 1015.8 hPa | - | - | - | - |
| 1787596226 | 31.67° C | 62% | 1015.6 hPa | - | - | - | - |
| 1787591094 | 31.67° C | 61% | 1016.8 hPa | - | - | - | - |
| 1787589395 | 32.22° C | 60% | 1018 hPa | - | - | - | - |
| 1787587706 | 32.22° C | 60% | 1016.9 hPa | - | - | - | - |
| 1787585978 | 32.22° C | 59% | 1017 hPa | - | - | - | - |
| 1787584290 | 32.78° C | 58% | 1016.9 hPa | - | - | - | - |
| 1787582563 | 32.22° C | 57% | 1017.1 hPa | - | - | - | - |
| 1787580863 | 32.78° C | 56% | 1017.2 hPa | - | - | - | - |
| 1787579163 | 32.22° C | 55% | 1016.9 hPa | - | - | - | - |
* Rain since midnight (hover to see other rain measurements)
** Current wind speed in m/s (hover to see current wind gust speed)